createdAt,value
2022-08-30T00:02:12.597Z,25.04
2022-08-30T00:04:53.493Z,25.00
2022-08-30T00:07:33.184Z,24.98
2022-08-30T00:10:10.717Z,25.36
2022-08-30T00:12:48.408Z,24.89
2022-08-30T00:15:36.756Z,24.72
2022-08-30T00:18:20.996Z,24.60
2022-08-30T00:21:05.894Z,25.06
2022-08-30T00:23:43.714Z,25.04
2022-08-30T00:26:37.143Z,24.90
2022-08-30T00:29:15.215Z,24.79
2022-08-30T00:31:57.713Z,25.04
2022-08-30T00:34:42.380Z,25.15
2022-08-30T00:37:20.547Z,24.71
2022-08-30T00:40:02.210Z,24.74
2022-08-30T00:42:41.403Z,25.09
2022-08-30T00:45:17.494Z,25.11
2022-08-30T00:48:14.798Z,24.84
2022-08-30T00:50:57.908Z,24.83
2022-08-30T00:53:40.107Z,24.90
2022-08-30T00:56:16.492Z,24.66
2022-08-30T00:58:58.906Z,24.64
2022-08-30T01:01:42.748Z,24.66
2022-08-30T01:04:20.780Z,24.75
2022-08-30T01:06:59.896Z,24.77
2022-08-30T01:09:42.996Z,24.77
2022-08-30T01:12:18.719Z,24.68
2022-08-30T01:14:59.021Z,24.73
2022-08-30T01:17:38.713Z,24.86
2022-08-30T01:20:24.806Z,24.79
2022-08-30T01:23:01.646Z,24.59
2022-08-30T01:25:35.932Z,24.24
2022-08-30T01:28:14.624Z,24.03
2022-08-30T01:30:52.947Z,24.33
2022-08-30T01:33:26.021Z,24.50
2022-08-30T01:36:16.332Z,24.65
2022-08-30T01:38:55.108Z,24.80
2022-08-30T01:41:39.626Z,24.78
2022-08-30T01:44:16.097Z,24.94
2022-08-30T01:47:05.013Z,24.88
2022-08-30T01:49:35.765Z,24.60
2022-08-30T01:52:11.039Z,24.82
2022-08-30T01:54:55.992Z,24.80
2022-08-30T01:57:33.677Z,24.77
2022-08-30T02:00:04.977Z,24.17
2022-08-30T02:02:47.623Z,24.01
2022-08-30T02:05:26.922Z,23.96
2022-08-30T02:08:02.868Z,23.88
2022-08-30T02:10:56.558Z,24.39
2022-08-30T02:13:30.771Z,24.63
2022-08-30T02:16:05.321Z,24.51
2022-08-30T02:18:43.234Z,24.50
2022-08-30T02:21:22.475Z,24.45
2022-08-30T02:23:55.689Z,24.45
2022-08-30T02:26:28.369Z,23.82
2022-08-30T02:29:00.301Z,24.43
2022-08-30T02:31:36.252Z,24.61
2022-08-30T02:34:07.874Z,24.45
2022-08-30T02:36:45.440Z,24.10
2022-08-30T02:39:19.852Z,23.81
2022-08-30T02:42:00.559Z,23.66
2022-08-30T02:44:36.597Z,23.67
2022-08-30T02:47:13.153Z,23.53
2022-08-30T02:49:42.787Z,23.39
2022-08-30T02:52:27.773Z,23.83
2022-08-30T02:55:00.904Z,23.29
2022-08-30T02:57:43.176Z,23.23
2022-08-30T03:00:18.809Z,23.65
2022-08-30T03:02:56.977Z,23.47
2022-08-30T03:05:33.701Z,23.54
2022-08-30T03:08:14.257Z,23.58
2022-08-30T03:10:46.915Z,23.68
2022-08-30T03:13:25.575Z,23.82
2022-08-30T03:15:54.687Z,24.03
2022-08-30T03:18:37.907Z,23.90
2022-08-30T03:21:18.248Z,23.81
2022-08-30T03:23:50.877Z,23.48
2022-08-30T03:26:28.139Z,23.51
2022-08-30T03:28:58.206Z,23.55
2022-08-30T03:31:31.489Z,23.40
2022-08-30T03:34:14.784Z,23.14
2022-08-30T03:36:54.512Z,23.28
2022-08-30T03:39:24.959Z,23.34
2022-08-30T03:41:58.191Z,23.17
2022-08-30T03:44:33.653Z,23.40
2022-08-30T03:47:07.626Z,23.19
2022-08-30T03:49:47.642Z,23.29
2022-08-30T03:52:20.056Z,23.27
2022-08-30T03:54:55.464Z,23.07
2022-08-30T03:57:34.968Z,23.11
2022-08-30T04:00:14.002Z,23.11
2022-08-30T04:02:47.196Z,23.00
2022-08-30T04:05:28.724Z,23.16
2022-08-30T04:08:07.203Z,23.03
2022-08-30T04:10:44.516Z,22.80
2022-08-30T04:13:23.316Z,22.78
2022-08-30T04:15:54.773Z,22.91
2022-08-30T04:18:28.073Z,23.07
2022-08-30T04:21:00.305Z,23.04
2022-08-30T04:23:38.563Z,23.13
2022-08-30T04:26:06.801Z,23.29
2022-08-30T04:28:38.057Z,22.88
2022-08-30T04:31:17.083Z,23.08
2022-08-30T04:33:54.837Z,22.37
2022-08-30T04:36:26.142Z,22.84
2022-08-30T04:38:57.605Z,22.75
2022-08-30T04:41:28.916Z,22.92
2022-08-30T04:44:03.656Z,23.02
2022-08-30T04:46:44.467Z,23.10
2022-08-30T04:49:24.083Z,23.47
2022-08-30T04:51:55.690Z,23.28
2022-08-30T04:54:28.440Z,23.40
2022-08-30T04:56:56.977Z,23.38
2022-08-30T04:59:28.647Z,23.64
2022-08-30T05:02:00.822Z,23.62
2022-08-30T05:04:35.703Z,23.64
2022-08-30T05:07:06.780Z,23.74
2022-08-30T05:09:40.772Z,23.68
2022-08-30T05:12:11.919Z,23.47
2022-08-30T05:14:42.703Z,23.53
2022-08-30T05:17:17.248Z,23.44
2022-08-30T05:19:49.543Z,23.76
2022-08-30T05:22:23.110Z,23.63
2022-08-30T05:24:56.385Z,23.85
2022-08-30T05:27:23.961Z,23.63
2022-08-30T05:29:52.494Z,23.84
2022-08-30T05:32:21.499Z,23.74
2022-08-30T05:34:51.913Z,23.92
2022-08-30T05:37:20.363Z,24.25
2022-08-30T05:39:51.507Z,24.26
2022-08-30T05:42:21.698Z,24.29
2022-08-30T05:44:53.884Z,24.10
2022-08-30T05:47:22.733Z,24.37
2022-08-30T05:49:50.848Z,24.45
2022-08-30T05:52:19.089Z,24.57
2022-08-30T05:54:54.662Z,24.72
2022-08-30T05:57:23.086Z,24.76
2022-08-30T05:59:51.796Z,24.87
2022-08-30T06:02:19.802Z,24.77
2022-08-30T06:04:48.641Z,24.94
2022-08-30T06:07:18.926Z,24.84
2022-08-30T06:09:49.661Z,24.87
2022-08-30T06:12:17.753Z,25.15
2022-08-30T06:14:45.650Z,25.38
2022-08-30T06:17:14.753Z,25.37
2022-08-30T06:19:42.916Z,25.58
2022-08-30T06:22:11.463Z,25.75
2022-08-30T06:25:01.150Z,25.77
2022-08-30T06:27:31.431Z,25.83
2022-08-30T06:30:15.068Z,25.81
2022-08-30T06:32:53.956Z,25.96
2022-08-30T06:35:30.677Z,25.95
2022-08-30T06:38:00.566Z,26.06
2022-08-30T06:40:29.079Z,26.14
2022-08-30T06:42:59.652Z,26.29
2022-08-30T06:45:27.820Z,26.31
2022-08-30T06:50:27.182Z,26.61
2022-08-30T06:53:07.931Z,26.78
2022-08-30T06:55:37.610Z,26.62
2022-08-30T06:58:06.069Z,26.87
2022-08-30T07:00:34.107Z,26.90
2022-08-30T07:03:02.759Z,26.98
2022-08-30T07:05:31.018Z,27.21
2022-08-30T07:07:59.077Z,27.18
2022-08-30T07:10:27.108Z,27.36
2022-08-30T07:13:04.736Z,27.60
2022-08-30T07:15:34.003Z,27.57
2022-08-30T07:18:30.209Z,27.45
2022-08-30T07:21:17.276Z,27.44
2022-08-30T07:23:53.070Z,27.46
2022-08-30T07:26:26.388Z,27.83
2022-08-30T07:28:55.740Z,27.89
2022-08-30T07:31:24.858Z,28.08
2022-08-30T07:33:53.495Z,28.10
2022-08-30T07:36:22.578Z,28.19
2022-08-30T07:38:51.541Z,28.06
2022-08-30T07:41:30.799Z,28.15
2022-08-30T07:43:59.195Z,28.41
2022-08-30T07:46:28.355Z,28.55
2022-08-30T07:48:56.704Z,28.56
2022-08-30T07:51:26.936Z,28.75
2022-08-30T07:53:56.526Z,28.67
2022-08-30T07:56:25.610Z,28.87
2022-08-30T07:58:53.961Z,28.92
2022-08-30T08:01:22.957Z,29.24
2022-08-30T08:03:51.826Z,29.31
2022-08-30T08:06:21.754Z,29.27
2022-08-30T08:08:50.619Z,29.56
2022-08-30T08:11:23.043Z,29.68
2022-08-30T08:13:54.380Z,29.78
2022-08-30T08:16:25.451Z,29.94
2022-08-30T08:18:54.664Z,29.77
2022-08-30T08:21:23.691Z,29.83
2022-08-30T08:23:52.054Z,29.64
2022-08-30T08:26:20.470Z,29.85
2022-08-30T08:28:49.034Z,29.71
2022-08-30T08:31:24.031Z,29.44
2022-08-30T08:36:33.562Z,29.51
2022-08-30T08:39:03.669Z,29.39
2022-08-30T08:42:04.150Z,29.48
2022-08-30T08:44:55.551Z,29.61
2022-08-30T08:47:26.165Z,29.96
2022-08-30T08:49:58.504Z,29.67
2022-08-30T08:52:53.074Z,29.70
2022-08-30T08:55:22.899Z,29.60
2022-08-30T08:57:52.552Z,29.27
2022-08-30T09:00:21.283Z,29.26
2022-08-30T09:03:04.511Z,28.88
2022-08-30T09:05:36.011Z,29.06
2022-08-30T09:08:10.451Z,29.43
2022-08-30T09:10:50.844Z,29.77
2022-08-30T09:13:31.129Z,29.34
2022-08-30T09:16:00.474Z,29.66
2022-08-30T09:18:50.110Z,29.90
2022-08-30T09:21:25.311Z,29.97
2022-08-30T09:24:02.135Z,30.39
2022-08-30T09:26:37.730Z,30.76
2022-08-30T09:29:06.105Z,30.41
2022-08-30T09:31:49.569Z,30.37
2022-08-30T09:34:20.823Z,29.94
2022-08-30T09:36:52.833Z,29.80
2022-08-30T09:39:30.474Z,30.18
2022-08-30T09:42:22.899Z,29.97
2022-08-30T09:44:51.814Z,30.29
2022-08-30T09:47:26.126Z,30.55
2022-08-30T09:50:08.028Z,30.19
2022-08-30T09:52:55.329Z,30.32
2022-08-30T09:56:00.335Z,30.31
2022-08-30T09:58:42.481Z,29.95
2022-08-30T10:01:37.569Z,30.35
2022-08-30T10:04:20.728Z,30.67
2022-08-30T10:06:55.014Z,30.96
2022-08-30T10:09:38.640Z,31.03
2022-08-30T10:12:17.012Z,31.18
2022-08-30T10:15:05.002Z,31.11
2022-08-30T10:17:47.848Z,31.28
2022-08-30T10:20:27.224Z,31.12
2022-08-30T10:23:02.416Z,31.00
2022-08-30T10:25:38.675Z,30.95
2022-08-30T10:28:37.944Z,31.04
2022-08-30T10:31:13.243Z,30.94
2022-08-30T10:34:02.338Z,30.79
2022-08-30T10:36:41.967Z,30.98
2022-08-30T10:39:15.182Z,31.12
2022-08-30T10:41:49.460Z,30.79
2022-08-30T10:44:34.849Z,31.52
2022-08-30T10:47:27.911Z,30.97
2022-08-30T10:50:07.607Z,31.19
2022-08-30T10:52:48.152Z,31.31
2022-08-30T10:55:16.528Z,30.91
2022-08-30T10:57:46.028Z,31.23
2022-08-30T11:03:44.720Z,30.62
2022-08-30T11:07:09.822Z,31.58
2022-08-30T11:10:18.510Z,31.50
2022-08-30T11:12:59.480Z,32.25
2022-08-30T11:15:34.935Z,32.36
2022-08-30T11:18:06.862Z,32.18
2022-08-30T11:20:47.805Z,31.84
2022-08-30T11:23:24.897Z,31.98
2022-08-30T11:26:02.409Z,31.83
2022-08-30T11:28:37.024Z,31.79
2022-08-30T11:31:11.418Z,31.51
2022-08-30T11:33:57.794Z,31.71
2022-08-30T11:36:38.195Z,31.85
2022-08-30T11:39:49.092Z,32.58
2022-08-30T11:42:24.403Z,32.50
2022-08-30T11:45:26.912Z,32.60
2022-08-30T11:48:04.493Z,33.03
2022-08-30T11:50:39.923Z,32.67
2022-08-30T11:53:18.257Z,32.63
2022-08-30T11:56:14.238Z,32.95
2022-08-30T11:58:45.946Z,32.79
2022-08-30T12:01:54.041Z,32.70
2022-08-30T12:04:46.162Z,32.95
2022-08-30T12:14:09.001Z,33.43
2022-08-30T12:17:14.815Z,33.31
2022-08-30T12:19:49.073Z,33.40
2022-08-30T12:22:19.203Z,33.50
2022-08-30T12:25:01.160Z,33.55
2022-08-30T12:27:33.041Z,33.78
2022-08-30T12:30:23.539Z,34.12
2022-08-30T12:33:42.775Z,34.21
2022-08-30T12:37:05.533Z,33.85
2022-08-30T12:39:53.550Z,33.66
2022-08-30T12:42:28.802Z,33.73
2022-08-30T12:45:12.134Z,33.16
2022-08-30T12:48:00.528Z,33.33
2022-08-30T12:50:40.716Z,33.50
2022-08-30T12:53:21.724Z,33.98
2022-08-30T12:56:11.372Z,34.25
2022-08-30T12:59:22.767Z,34.43
2022-08-30T13:02:42.332Z,34.44
2022-08-30T13:05:47.840Z,34.58
2022-08-30T13:08:39.260Z,34.56
2022-08-30T13:11:13.213Z,34.57
2022-08-30T13:29:54.618Z,35.87
2022-08-30T13:32:25.781Z,35.87
2022-08-30T13:34:54.717Z,35.38
2022-08-30T13:40:15.369Z,34.73
2022-08-30T13:42:45.675Z,34.31
2022-08-30T13:48:11.488Z,34.57
2022-08-30T13:50:41.084Z,34.05
2022-08-30T13:53:10.682Z,34.51
2022-08-30T13:55:48.614Z,34.68
2022-08-30T13:58:36.785Z,34.64
2022-08-30T14:01:29.958Z,34.85
2022-08-30T14:04:17.084Z,34.81
2022-08-30T14:09:41.530Z,35.38
2022-08-30T14:15:30.673Z,34.95
2022-08-30T14:18:03.521Z,35.07
2022-08-30T14:20:40.161Z,35.33
2022-08-30T14:23:18.283Z,35.36
2022-08-30T14:25:51.415Z,35.60
2022-08-30T14:28:19.797Z,34.59
2022-08-30T14:30:52.519Z,33.83
2022-08-30T14:33:24.355Z,34.40
2022-08-30T14:35:53.508Z,34.83
2022-08-30T14:38:32.788Z,34.57
2022-08-30T14:41:07.479Z,34.94
2022-08-30T14:43:41.468Z,35.44
2022-08-30T14:46:15.388Z,35.53
2022-08-30T14:48:57.282Z,35.56
2022-08-30T14:51:29.478Z,35.78
2022-08-30T14:54:05.774Z,35.52
2022-08-30T14:56:42.276Z,35.72
2022-08-30T14:59:21.390Z,35.57
2022-08-30T15:02:03.008Z,35.54
2022-08-30T15:04:34.824Z,35.59
2022-08-30T15:07:16.683Z,35.40
2022-08-30T15:09:50.751Z,35.59
2022-08-30T15:12:26.176Z,35.39
2022-08-30T15:15:10.941Z,35.34
2022-08-30T15:17:39.526Z,35.11
2022-08-30T15:20:16.244Z,35.21
2022-08-30T15:22:46.184Z,35.09
2022-08-30T15:25:17.149Z,34.95
2022-08-30T15:27:50.093Z,34.87
2022-08-30T15:30:26.030Z,34.73
2022-08-30T15:32:57.581Z,34.37
2022-08-30T15:35:31.307Z,34.23
2022-08-30T15:37:59.498Z,34.17
2022-08-30T15:40:33.418Z,34.32
2022-08-30T15:43:05.783Z,34.01
2022-08-30T15:45:36.005Z,33.58
2022-08-30T15:48:04.187Z,33.72
2022-08-30T15:50:35.950Z,33.39
2022-08-30T15:53:07.435Z,33.62
2022-08-30T15:55:37.910Z,33.57
2022-08-30T15:58:09.235Z,33.61
2022-08-30T16:00:42.790Z,33.46
2022-08-30T16:03:12.997Z,33.39
2022-08-30T16:05:46.769Z,33.34
2022-08-30T16:08:14.930Z,33.37
2022-08-30T16:10:47.941Z,33.29
2022-08-30T16:13:21.226Z,33.18
2022-08-30T16:15:49.024Z,33.25
2022-08-30T16:18:17.678Z,32.90
2022-08-30T16:20:46.162Z,33.12
2022-08-30T16:23:13.964Z,32.83
2022-08-30T16:25:41.739Z,32.87
2022-08-30T16:28:10.815Z,33.15
2022-08-30T16:30:38.636Z,32.97
2022-08-30T16:33:07.763Z,33.15
2022-08-30T16:35:36.553Z,32.76
2022-08-30T16:38:04.829Z,32.87
2022-08-30T16:40:33.279Z,32.89
2022-08-30T16:43:04.244Z,32.57
2022-08-30T16:45:37.009Z,32.67
2022-08-30T16:48:05.776Z,32.67
2022-08-30T16:50:37.760Z,32.76
2022-08-30T16:53:07.988Z,32.89
2022-08-30T16:55:37.868Z,32.77
2022-08-30T16:58:09.111Z,32.83
2022-08-30T17:00:39.339Z,32.65
2022-08-30T17:03:09.499Z,32.83
2022-08-30T17:05:38.120Z,32.70
2022-08-30T17:08:05.829Z,32.42
2022-08-30T17:10:34.389Z,32.35
2022-08-30T17:13:03.987Z,32.32
2022-08-30T17:15:33.668Z,32.23
2022-08-30T17:18:01.871Z,32.39
2022-08-30T17:20:31.971Z,32.32
2022-08-30T17:23:02.259Z,32.24
2022-08-30T17:25:33.912Z,32.11
2022-08-30T17:28:03.146Z,31.83
2022-08-30T17:30:31.894Z,31.61
2022-08-30T17:33:00.080Z,31.70
2022-08-30T17:35:30.816Z,31.79
2022-08-30T17:37:58.748Z,31.61
2022-08-30T17:40:27.068Z,31.60
2022-08-30T17:42:56.161Z,31.46
2022-08-30T17:45:24.235Z,31.40
2022-08-30T17:47:52.772Z,31.13
2022-08-30T17:50:21.532Z,31.14
2022-08-30T17:52:51.180Z,31.21
2022-08-30T17:55:19.583Z,30.95
2022-08-30T17:57:48.217Z,31.00
2022-08-30T18:00:20.179Z,30.93
2022-08-30T18:02:49.766Z,30.73
2022-08-30T18:05:17.361Z,30.61
2022-08-30T18:07:53.588Z,30.53
2022-08-30T18:10:28.544Z,30.29
2022-08-30T18:13:03.903Z,30.40
2022-08-30T18:15:33.248Z,29.95
2022-08-30T18:18:02.243Z,29.99
2022-08-30T18:20:33.158Z,29.89
2022-08-30T18:23:02.059Z,30.01
2022-08-30T18:25:30.143Z,29.83
2022-08-30T18:27:59.330Z,29.77
2022-08-30T18:30:33.974Z,29.64
2022-08-30T18:33:06.952Z,29.78
2022-08-30T18:35:35.010Z,29.79
2022-08-30T18:38:04.823Z,29.89
2022-08-30T18:40:32.981Z,29.58
2022-08-30T18:43:07.872Z,29.59
2022-08-30T18:45:38.506Z,29.29
2022-08-30T18:48:06.149Z,29.31
2022-08-30T18:50:34.241Z,29.24
2022-08-30T18:53:03.649Z,29.25
2022-08-30T18:55:32.963Z,29.13
2022-08-30T18:58:01.798Z,28.90
2022-08-30T19:00:33.717Z,28.75
2022-08-30T19:03:03.155Z,28.60
2022-08-30T19:05:35.566Z,28.81
2022-08-30T19:08:04.224Z,28.68
2022-08-30T19:10:34.129Z,28.77
2022-08-30T19:13:04.928Z,28.63
2022-08-30T19:15:37.984Z,28.64
2022-08-30T19:18:16.679Z,28.54
2022-08-30T19:20:47.445Z,28.66
2022-08-30T19:23:18.073Z,28.38
2022-08-30T19:25:47.004Z,28.37
2022-08-30T19:28:21.825Z,28.43
2022-08-30T19:30:54.934Z,28.22
2022-08-30T19:33:23.756Z,27.96
2022-08-30T19:35:55.045Z,27.92
2022-08-30T19:38:26.257Z,27.73
2022-08-30T19:40:59.344Z,28.00
2022-08-30T19:43:30.623Z,27.98
2022-08-30T19:46:00.986Z,28.06
2022-08-30T19:48:32.795Z,27.57
2022-08-30T19:51:08.533Z,27.47
2022-08-30T19:53:37.306Z,27.73
2022-08-30T19:56:06.385Z,27.71
2022-08-30T19:58:35.319Z,27.59
2022-08-30T20:01:11.691Z,27.61
2022-08-30T20:03:49.713Z,27.73
2022-08-30T20:06:20.212Z,27.57
2022-08-30T20:08:48.623Z,27.51
2022-08-30T20:11:20.609Z,27.13
2022-08-30T20:13:49.791Z,26.99
2022-08-30T20:16:19.957Z,26.73
2022-08-30T20:18:52.889Z,26.56
2022-08-30T20:21:24.245Z,26.43
2022-08-30T20:23:55.487Z,26.20
2022-08-30T20:26:31.630Z,26.41
2022-08-30T20:29:06.233Z,26.52
2022-08-30T20:31:37.165Z,26.87
2022-08-30T20:34:07.916Z,27.06
2022-08-30T20:36:36.213Z,26.87
2022-08-30T20:39:09.601Z,26.85
2022-08-30T20:41:38.347Z,26.89
2022-08-30T20:44:11.861Z,26.86
2022-08-30T20:46:46.537Z,26.91
2022-08-30T20:49:14.668Z,26.70
2022-08-30T20:51:44.004Z,26.59
2022-08-30T20:54:12.532Z,26.64
2022-08-30T20:56:41.007Z,26.57
2022-08-30T20:59:10.237Z,26.15
2022-08-30T21:01:39.216Z,26.04
2022-08-30T21:04:09.572Z,25.98
2022-08-30T21:06:39.453Z,26.15
2022-08-30T21:09:08.999Z,26.42
2022-08-30T21:11:39.269Z,26.23
2022-08-30T21:14:13.331Z,26.33
2022-08-30T21:16:41.929Z,25.53
2022-08-30T21:19:10.201Z,25.79
2022-08-30T21:21:38.574Z,26.08
2022-08-30T21:24:10.276Z,26.00
2022-08-30T21:26:40.846Z,26.12
2022-08-30T21:29:09.978Z,25.95
2022-08-30T21:31:38.315Z,25.99
2022-08-30T21:34:07.387Z,25.94
2022-08-30T21:36:46.246Z,25.70
2022-08-30T21:39:24.902Z,25.90
2022-08-30T21:41:57.070Z,25.71
2022-08-30T21:44:26.965Z,26.18
2022-08-30T21:46:55.182Z,25.72
2022-08-30T21:49:23.922Z,25.72
2022-08-30T21:51:53.936Z,25.78
2022-08-30T21:54:23.320Z,25.90
2022-08-30T21:56:53.252Z,26.03
2022-08-30T21:59:22.390Z,26.09
2022-08-30T22:01:50.522Z,25.71
2022-08-30T22:04:25.690Z,25.22
2022-08-30T22:06:54.485Z,25.20
2022-08-30T22:09:24.874Z,25.04
2022-08-30T22:11:58.295Z,25.01
2022-08-30T22:14:33.780Z,25.07
2022-08-30T22:17:08.644Z,25.24
2022-08-30T22:19:41.822Z,25.01
2022-08-30T22:22:14.512Z,25.29
2022-08-30T22:24:50.165Z,24.91
2022-08-30T22:27:22.523Z,25.12
2022-08-30T22:29:53.071Z,24.95
2022-08-30T22:32:24.089Z,24.90
2022-08-30T22:34:59.207Z,25.05
2022-08-30T22:37:30.543Z,25.06
2022-08-30T22:40:06.671Z,24.82
2022-08-30T22:42:37.745Z,24.85
2022-08-30T22:45:10.382Z,24.78
2022-08-30T22:47:40.371Z,24.76
2022-08-30T22:50:10.742Z,24.80
2022-08-30T22:52:41.880Z,24.44
2022-08-30T22:55:12.475Z,24.50
2022-08-30T22:57:45.871Z,24.62
2022-08-30T23:00:20.376Z,24.73
2022-08-30T23:02:54.072Z,24.86
2022-08-30T23:05:25.751Z,24.57
2022-08-30T23:07:56.896Z,24.56
2022-08-30T23:10:30.222Z,24.68
2022-08-30T23:13:02.817Z,24.24
2022-08-30T23:15:32.595Z,24.36
2022-08-30T23:18:06.025Z,24.03
2022-08-30T23:20:38.849Z,23.60
2022-08-30T23:23:08.067Z,23.88
2022-08-30T23:26:05.645Z,23.63
2022-08-30T23:29:00.219Z,23.36
2022-08-30T23:31:55.742Z,23.82
2022-08-30T23:34:46.365Z,23.18
2022-08-30T23:37:36.955Z,23.38
2022-08-30T23:40:26.443Z,23.62
2022-08-30T23:43:21.798Z,23.54
2022-08-30T23:46:10.299Z,23.64
2022-08-30T23:48:59.405Z,23.95
2022-08-30T23:51:48.091Z,23.80
2022-08-30T23:54:38.813Z,23.98
2022-08-30T23:57:26.767Z,24.15
